sensor_id;sensor_type;location;lat;lon;timestamp;temperature;humidity
6377;DHT22;3221;48.858;10.128;2023-04-06T00:00:25;3.00;90.70
6377;DHT22;3221;48.858;10.128;2023-04-06T00:02:52;2.80;91.30
6377;DHT22;3221;48.858;10.128;2023-04-06T00:05:21;2.90;91.60
6377;DHT22;3221;48.858;10.128;2023-04-06T00:07:49;3.10;90.90
6377;DHT22;3221;48.858;10.128;2023-04-06T00:10:17;2.90;90.90
6377;DHT22;3221;48.858;10.128;2023-04-06T00:12:43;2.90;90.80
6377;DHT22;3221;48.858;10.128;2023-04-06T00:15:10;2.90;90.60
6377;DHT22;3221;48.858;10.128;2023-04-06T00:17:37;2.80;90.90
6377;DHT22;3221;48.858;10.128;2023-04-06T00:20:05;2.70;91.10
6377;DHT22;3221;48.858;10.128;2023-04-06T00:22:33;2.60;91.40
6377;DHT22;3221;48.858;10.128;2023-04-06T00:25:00;2.60;91.70
6377;DHT22;3221;48.858;10.128;2023-04-06T00:27:27;2.50;91.90
6377;DHT22;3221;48.858;10.128;2023-04-06T00:29:54;2.50;92.00
6377;DHT22;3221;48.858;10.128;2023-04-06T00:32:21;2.60;91.70
6377;DHT22;3221;48.858;10.128;2023-04-06T00:34:48;2.40;92.00
6377;DHT22;3221;48.858;10.128;2023-04-06T00:37:15;2.50;92.30
6377;DHT22;3221;48.858;10.128;2023-04-06T00:39:42;2.50;91.80
6377;DHT22;3221;48.858;10.128;2023-04-06T00:42:12;2.60;91.60
6377;DHT22;3221;48.858;10.128;2023-04-06T00:44:41;2.50;92.10
6377;DHT22;3221;48.858;10.128;2023-04-06T00:47:09;2.50;92.10
6377;DHT22;3221;48.858;10.128;2023-04-06T00:49:36;2.50;92.30
6377;DHT22;3221;48.858;10.128;2023-04-06T00:52:03;2.70;91.70
6377;DHT22;3221;48.858;10.128;2023-04-06T00:54:30;2.60;91.80
6377;DHT22;3221;48.858;10.128;2023-04-06T00:56:58;2.60;92.30
6377;DHT22;3221;48.858;10.128;2023-04-06T00:59:28;2.40;92.20
6377;DHT22;3221;48.858;10.128;2023-04-06T01:01:57;2.60;92.50
6377;DHT22;3221;48.858;10.128;2023-04-06T01:04:39;2.50;92.20
6377;DHT22;3221;48.858;10.128;2023-04-06T01:07:12;2.50;92.10
6377;DHT22;3221;48.858;10.128;2023-04-06T01:09:47;2.50;92.40
6377;DHT22;3221;48.858;10.128;2023-04-06T01:12:20;2.50;92.30
6377;DHT22;3221;48.858;10.128;2023-04-06T01:14:48;2.50;91.90
6377;DHT22;3221;48.858;10.128;2023-04-06T01:17:15;2.50;92.10
6377;DHT22;3221;48.858;10.128;2023-04-06T01:19:44;2.40;92.10
6377;DHT22;3221;48.858;10.128;2023-04-06T01:22:20;2.50;92.50
6377;DHT22;3221;48.858;10.128;2023-04-06T01:24:56;2.40;92.90
6377;DHT22;3221;48.858;10.128;2023-04-06T01:27:32;2.40;92.90
6377;DHT22;3221;48.858;10.128;2023-04-06T01:30:11;2.40;92.30
6377;DHT22;3221;48.858;10.128;2023-04-06T01:32:46;2.30;92.40
6377;DHT22;3221;48.858;10.128;2023-04-06T01:35:18;2.30;92.20
6377;DHT22;3221;48.858;10.128;2023-04-06T01:37:56;2.50;92.50
6377;DHT22;3221;48.858;10.128;2023-04-06T01:40:29;2.40;91.80
6377;DHT22;3221;48.858;10.128;2023-04-06T01:42:56;2.40;91.50
6377;DHT22;3221;48.858;10.128;2023-04-06T01:45:56;2.50;91.50
6377;DHT22;3221;48.858;10.128;2023-04-06T01:48:28;2.30;91.40
6377;DHT22;3221;48.858;10.128;2023-04-06T01:50:55;2.30;92.00
6377;DHT22;3221;48.858;10.128;2023-04-06T01:53:28;2.40;91.90
6377;DHT22;3221;48.858;10.128;2023-04-06T01:56:00;2.40;91.90
6377;DHT22;3221;48.858;10.128;2023-04-06T01:58:35;2.40;91.90
6377;DHT22;3221;48.858;10.128;2023-04-06T02:01:03;2.40;92.00
6377;DHT22;3221;48.858;10.128;2023-04-06T02:03:42;2.40;91.60
6377;DHT22;3221;48.858;10.128;2023-04-06T02:06:10;2.30;92.10
6377;DHT22;3221;48.858;10.128;2023-04-06T02:08:39;2.20;92.40
6377;DHT22;3221;48.858;10.128;2023-04-06T02:11:06;2.20;92.50
6377;DHT22;3221;48.858;10.128;2023-04-06T02:13:40;2.20;92.80
6377;DHT22;3221;48.858;10.128;2023-04-06T02:16:08;2.20;92.60
6377;DHT22;3221;48.858;10.128;2023-04-06T02:18:35;2.30;92.70
6377;DHT22;3221;48.858;10.128;2023-04-06T02:21:02;2.20;92.50
6377;DHT22;3221;48.858;10.128;2023-04-06T02:23:29;2.20;92.40
6377;DHT22;3221;48.858;10.128;2023-04-06T02:25:56;2.30;92.80
6377;DHT22;3221;48.858;10.128;2023-04-06T02:28:23;2.30;92.40
6377;DHT22;3221;48.858;10.128;2023-04-06T02:30:50;2.10;93.00
6377;DHT22;3221;48.858;10.128;2023-04-06T02:33:19;2.10;92.90
6377;DHT22;3221;48.858;10.128;2023-04-06T02:35:47;2.10;93.10
6377;DHT22;3221;48.858;10.128;2023-04-06T02:38:14;2.30;93.10
6377;DHT22;3221;48.858;10.128;2023-04-06T02:40:41;2.20;93.00
6377;DHT22;3221;48.858;10.128;2023-04-06T02:43:15;2.10;93.00
6377;DHT22;3221;48.858;10.128;2023-04-06T02:45:44;2.00;92.40
6377;DHT22;3221;48.858;10.128;2023-04-06T02:48:12;2.10;93.00
6377;DHT22;3221;48.858;10.128;2023-04-06T02:50:39;2.10;92.40
6377;DHT22;3221;48.858;10.128;2023-04-06T02:53:07;2.20;92.60
6377;DHT22;3221;48.858;10.128;2023-04-06T02:55:36;2.20;92.70
6377;DHT22;3221;48.858;10.128;2023-04-06T02:58:03;2.20;92.60
6377;DHT22;3221;48.858;10.128;2023-04-06T03:00:39;2.30;92.50
6377;DHT22;3221;48.858;10.128;2023-04-06T03:03:06;2.30;93.00
6377;DHT22;3221;48.858;10.128;2023-04-06T03:05:34;2.40;92.00
6377;DHT22;3221;48.858;10.128;2023-04-06T03:08:01;2.20;92.20
6377;DHT22;3221;48.858;10.128;2023-04-06T03:10:40;2.20;92.40
6377;DHT22;3221;48.858;10.128;2023-04-06T03:13:07;2.10;92.60
6377;DHT22;3221;48.858;10.128;2023-04-06T03:15:55;2.10;92.80
6377;DHT22;3221;48.858;10.128;2023-04-06T03:18:23;2.20;92.80
6377;DHT22;3221;48.858;10.128;2023-04-06T03:20:52;2.10;93.00
6377;DHT22;3221;48.858;10.128;2023-04-06T03:23:31;2.10;92.40
6377;DHT22;3221;48.858;10.128;2023-04-06T03:26:01;2.10;92.80
6377;DHT22;3221;48.858;10.128;2023-04-06T03:28:29;1.90;92.40
6377;DHT22;3221;48.858;10.128;2023-04-06T03:30:59;1.90;92.90
6377;DHT22;3221;48.858;10.128;2023-04-06T03:33:43;1.90;92.70
6377;DHT22;3221;48.858;10.128;2023-04-06T03:36:17;1.90;92.90
6377;DHT22;3221;48.858;10.128;2023-04-06T03:38:44;1.70;92.80
6377;DHT22;3221;48.858;10.128;2023-04-06T03:41:13;1.90;93.00
6377;DHT22;3221;48.858;10.128;2023-04-06T03:43:44;1.80;93.20
6377;DHT22;3221;48.858;10.128;2023-04-06T03:46:11;1.80;93.20
6377;DHT22;3221;48.858;10.128;2023-04-06T03:48:38;1.70;93.00
6377;DHT22;3221;48.858;10.128;2023-04-06T03:51:06;1.70;93.10
6377;DHT22;3221;48.858;10.128;2023-04-06T03:53:33;1.70;93.20
6377;DHT22;3221;48.858;10.128;2023-04-06T03:56:00;1.50;93.00
6377;DHT22;3221;48.858;10.128;2023-04-06T03:58:30;1.50;93.30
6377;DHT22;3221;48.858;10.128;2023-04-06T04:00:57;1.50;93.30
6377;DHT22;3221;48.858;10.128;2023-04-06T04:03:24;1.60;93.40
6377;DHT22;3221;48.858;10.128;2023-04-06T04:05:54;1.50;93.20
6377;DHT22;3221;48.858;10.128;2023-04-06T04:08:25;1.50;93.30
6377;DHT22;3221;48.858;10.128;2023-04-06T04:10:52;1.60;93.30
6377;DHT22;3221;48.858;10.128;2023-04-06T04:13:19;1.60;93.70
6377;DHT22;3221;48.858;10.128;2023-04-06T04:15:48;1.50;93.70
6377;DHT22;3221;48.858;10.128;2023-04-06T04:18:16;1.50;93.40
6377;DHT22;3221;48.858;10.128;2023-04-06T04:20:42;1.40;93.40
6377;DHT22;3221;48.858;10.128;2023-04-06T04:23:11;1.50;93.70
6377;DHT22;3221;48.858;10.128;2023-04-06T04:25:38;1.50;94.00
6377;DHT22;3221;48.858;10.128;2023-04-06T04:28:06;1.40;93.70
6377;DHT22;3221;48.858;10.128;2023-04-06T04:30:33;1.40;93.40
6377;DHT22;3221;48.858;10.128;2023-04-06T04:33:00;1.30;93.50
6377;DHT22;3221;48.858;10.128;2023-04-06T04:35:27;1.30;93.80
6377;DHT22;3221;48.858;10.128;2023-04-06T04:37:56;1.30;93.70
6377;DHT22;3221;48.858;10.128;2023-04-06T04:40:23;1.40;93.50
6377;DHT22;3221;48.858;10.128;2023-04-06T04:42:55;1.30;93.70
6377;DHT22;3221;48.858;10.128;2023-04-06T04:45:30;1.20;93.70
6377;DHT22;3221;48.858;10.128;2023-04-06T04:48:01;1.40;93.50
6377;DHT22;3221;48.858;10.128;2023-04-06T04:50:37;1.20;93.70
6377;DHT22;3221;48.858;10.128;2023-04-06T04:53:04;1.10;93.60
6377;DHT22;3221;48.858;10.128;2023-04-06T04:55:32;1.20;93.60
6377;DHT22;3221;48.858;10.128;2023-04-06T04:58:00;1.10;93.90
6377;DHT22;3221;48.858;10.128;2023-04-06T05:00:43;1.20;94.00
6377;DHT22;3221;48.858;10.128;2023-04-06T05:03:17;1.20;93.90
6377;DHT22;3221;48.858;10.128;2023-04-06T05:05:51;1.20;93.70
6377;DHT22;3221;48.858;10.128;2023-04-06T05:08:18;1.10;93.60
6377;DHT22;3221;48.858;10.128;2023-04-06T05:10:48;1.00;93.60
6377;DHT22;3221;48.858;10.128;2023-04-06T05:13:16;1.00;93.70
6377;DHT22;3221;48.858;10.128;2023-04-06T05:15:46;1.00;93.80
6377;DHT22;3221;48.858;10.128;2023-04-06T05:18:33;1.00;93.90
6377;DHT22;3221;48.858;10.128;2023-04-06T05:21:02;1.00;94.10
6377;DHT22;3221;48.858;10.128;2023-04-06T05:23:51;1.00;94.30
6377;DHT22;3221;48.858;10.128;2023-04-06T05:26:18;1.10;94.40
6377;DHT22;3221;48.858;10.128;2023-04-06T05:28:45;1.00;94.10
6377;DHT22;3221;48.858;10.128;2023-04-06T05:31:13;0.90;94.00
6377;DHT22;3221;48.858;10.128;2023-04-06T05:33:46;0.90;94.30
6377;DHT22;3221;48.858;10.128;2023-04-06T05:36:15;0.90;94.40
6377;DHT22;3221;48.858;10.128;2023-04-06T05:38:45;1.10;94.40
6377;DHT22;3221;48.858;10.128;2023-04-06T05:41:32;0.90;94.20
6377;DHT22;3221;48.858;10.128;2023-04-06T05:44:00;0.90;94.40
6377;DHT22;3221;48.858;10.128;2023-04-06T05:46:27;0.90;94.30
6377;DHT22;3221;48.858;10.128;2023-04-06T05:48:57;1.00;94.50
6377;DHT22;3221;48.858;10.128;2023-04-06T05:51:28;1.00;94.30
6377;DHT22;3221;48.858;10.128;2023-04-06T05:53:56;0.90;94.30
6377;DHT22;3221;48.858;10.128;2023-04-06T05:56:23;0.90;94.30
6377;DHT22;3221;48.858;10.128;2023-04-06T05:58:50;0.90;94.40
6377;DHT22;3221;48.858;10.128;2023-04-06T06:01:23;0.90;94.40
6377;DHT22;3221;48.858;10.128;2023-04-06T06:03:50;0.90;94.40
6377;DHT22;3221;48.858;10.128;2023-04-06T06:06:17;0.90;94.50
6377;DHT22;3221;48.858;10.128;2023-04-06T06:09:04;0.90;94.40
6377;DHT22;3221;48.858;10.128;2023-04-06T06:11:36;1.00;94.60
6377;DHT22;3221;48.858;10.128;2023-04-06T06:14:05;0.90;94.30
6377;DHT22;3221;48.858;10.128;2023-04-06T06:16:35;0.90;94.40
6377;DHT22;3221;48.858;10.128;2023-04-06T06:19:02;1.00;94.50
6377;DHT22;3221;48.858;10.128;2023-04-06T06:21:30;0.90;94.60
6377;DHT22;3221;48.858;10.128;2023-04-06T06:23:58;1.00;94.70
6377;DHT22;3221;48.858;10.128;2023-04-06T06:26:24;1.20;94.90
6377;DHT22;3221;48.858;10.128;2023-04-06T06:28:51;1.30;95.30
6377;DHT22;3221;48.858;10.128;2023-04-06T06:31:19;1.40;95.50
6377;DHT22;3221;48.858;10.128;2023-04-06T06:33:49;1.40;95.90
6377;DHT22;3221;48.858;10.128;2023-04-06T06:36:19;1.30;95.40
6377;DHT22;3221;48.858;10.128;2023-04-06T06:38:46;1.50;95.70
6377;DHT22;3221;48.858;10.128;2023-04-06T06:41:16;1.50;95.70
6377;DHT22;3221;48.858;10.128;2023-04-06T06:43:43;1.50;95.80
6377;DHT22;3221;48.858;10.128;2023-04-06T06:46:11;1.60;95.90
6377;DHT22;3221;48.858;10.128;2023-04-06T06:48:39;1.70;96.10
6377;DHT22;3221;48.858;10.128;2023-04-06T06:51:06;1.70;96.60
6377;DHT22;3221;48.858;10.128;2023-04-06T06:53:33;1.70;96.50
6377;DHT22;3221;48.858;10.128;2023-04-06T06:56:00;1.80;96.70
6377;DHT22;3221;48.858;10.128;2023-04-06T06:58:28;1.90;97.00
6377;DHT22;3221;48.858;10.128;2023-04-06T07:00:59;2.20;96.80
6377;DHT22;3221;48.858;10.128;2023-04-06T07:03:29;2.20;96.80
6377;DHT22;3221;48.858;10.128;2023-04-06T07:05:56;2.20;97.10
6377;DHT22;3221;48.858;10.128;2023-04-06T07:08:24;2.40;97.10
6377;DHT22;3221;48.858;10.128;2023-04-06T07:10:52;2.40;97.00
6377;DHT22;3221;48.858;10.128;2023-04-06T07:13:19;2.60;97.40
6377;DHT22;3221;48.858;10.128;2023-04-06T07:15:52;2.70;97.10
6377;DHT22;3221;48.858;10.128;2023-04-06T07:18:20;2.90;97.20
6377;DHT22;3221;48.858;10.128;2023-04-06T07:20:47;3.00;96.80
6377;DHT22;3221;48.858;10.128;2023-04-06T07:23:16;3.00;96.80
6377;DHT22;3221;48.858;10.128;2023-04-06T07:25:44;2.90;96.80
6377;DHT22;3221;48.858;10.128;2023-04-06T07:28:11;3.00;96.90
6377;DHT22;3221;48.858;10.128;2023-04-06T07:30:38;2.90;97.00
6377;DHT22;3221;48.858;10.128;2023-04-06T07:33:07;2.90;97.30
6377;DHT22;3221;48.858;10.128;2023-04-06T07:35:35;3.10;97.40
6377;DHT22;3221;48.858;10.128;2023-04-06T07:38:04;3.30;97.40
6377;DHT22;3221;48.858;10.128;2023-04-06T07:40:33;3.30;97.70
6377;DHT22;3221;48.858;10.128;2023-04-06T07:43:00;3.30;97.30
6377;DHT22;3221;48.858;10.128;2023-04-06T07:45:29;3.40;97.10
6377;DHT22;3221;48.858;10.128;2023-04-06T07:47:56;3.20;97.40
6377;DHT22;3221;48.858;10.128;2023-04-06T07:50:26;3.60;96.90
6377;DHT22;3221;48.858;10.128;2023-04-06T07:52:53;3.80;97.10
6377;DHT22;3221;48.858;10.128;2023-04-06T07:55:21;3.90;97.20
6377;DHT22;3221;48.858;10.128;2023-04-06T07:57:48;4.00;96.80
6377;DHT22;3221;48.858;10.128;2023-04-06T08:00:15;4.20;96.60
6377;DHT22;3221;48.858;10.128;2023-04-06T08:02:42;4.30;96.10
6377;DHT22;3221;48.858;10.128;2023-04-06T08:05:09;4.30;96.40
6377;DHT22;3221;48.858;10.128;2023-04-06T08:07:37;4.30;95.70
6377;DHT22;3221;48.858;10.128;2023-04-06T08:10:04;4.30;95.90
6377;DHT22;3221;48.858;10.128;2023-04-06T08:12:32;4.30;95.80
6377;DHT22;3221;48.858;10.128;2023-04-06T08:15:00;4.20;96.50
6377;DHT22;3221;48.858;10.128;2023-04-06T08:17:29;4.10;96.60
6377;DHT22;3221;48.858;10.128;2023-04-06T08:19:57;4.20;96.10
6377;DHT22;3221;48.858;10.128;2023-04-06T08:22:24;4.40;96.20
6377;DHT22;3221;48.858;10.128;2023-04-06T08:24:51;4.30;95.40
6377;DHT22;3221;48.858;10.128;2023-04-06T08:27:18;4.30;94.90
6377;DHT22;3221;48.858;10.128;2023-04-06T08:29:45;4.40;95.20
6377;DHT22;3221;48.858;10.128;2023-04-06T08:32:12;4.40;93.30
6377;DHT22;3221;48.858;10.128;2023-04-06T08:34:39;4.40;94.50
6377;DHT22;3221;48.858;10.128;2023-04-06T08:37:06;4.50;94.70
6377;DHT22;3221;48.858;10.128;2023-04-06T08:39:33;4.50;95.20
6377;DHT22;3221;48.858;10.128;2023-04-06T08:42:01;4.70;95.40
6377;DHT22;3221;48.858;10.128;2023-04-06T08:44:31;4.60;95.50
6377;DHT22;3221;48.858;10.128;2023-04-06T08:46:59;4.60;94.50
6377;DHT22;3221;48.858;10.128;2023-04-06T08:49:27;4.80;94.60
6377;DHT22;3221;48.858;10.128;2023-04-06T08:51:55;4.90;93.80
6377;DHT22;3221;48.858;10.128;2023-04-06T08:54:24;4.80;94.30
6377;DHT22;3221;48.858;10.128;2023-04-06T08:56:52;4.90;93.90
6377;DHT22;3221;48.858;10.128;2023-04-06T08:59:19;5.00;95.00
6377;DHT22;3221;48.858;10.128;2023-04-06T09:01:47;5.10;94.00
6377;DHT22;3221;48.858;10.128;2023-04-06T09:04:14;5.00;95.10
6377;DHT22;3221;48.858;10.128;2023-04-06T09:06:43;5.10;93.70
6377;DHT22;3221;48.858;10.128;2023-04-06T09:09:10;5.20;95.80
6377;DHT22;3221;48.858;10.128;2023-04-06T09:11:50;5.30;94.80
6377;DHT22;3221;48.858;10.128;2023-04-06T09:14:32;5.10;94.00
6377;DHT22;3221;48.858;10.128;2023-04-06T09:16:59;5.40;94.70
6377;DHT22;3221;48.858;10.128;2023-04-06T09:19:26;5.40;95.50
6377;DHT22;3221;48.858;10.128;2023-04-06T09:22:06;5.60;95.70
6377;DHT22;3221;48.858;10.128;2023-04-06T09:24:43;5.50;94.20
6377;DHT22;3221;48.858;10.128;2023-04-06T09:27:11;5.50;94.00
6377;DHT22;3221;48.858;10.128;2023-04-06T09:29:38;5.60;93.80
6377;DHT22;3221;48.858;10.128;2023-04-06T09:32:07;5.60;94.10
6377;DHT22;3221;48.858;10.128;2023-04-06T09:34:34;5.80;93.90
6377;DHT22;3221;48.858;10.128;2023-04-06T09:37:18;5.80;95.00
6377;DHT22;3221;48.858;10.128;2023-04-06T09:39:46;5.80;94.10
6377;DHT22;3221;48.858;10.128;2023-04-06T09:42:25;5.80;93.10
6377;DHT22;3221;48.858;10.128;2023-04-06T09:44:52;5.90;91.90
6377;DHT22;3221;48.858;10.128;2023-04-06T09:47:19;5.90;93.10
6377;DHT22;3221;48.858;10.128;2023-04-06T09:49:50;5.80;91.20
6377;DHT22;3221;48.858;10.128;2023-04-06T09:52:19;6.20;92.30
6377;DHT22;3221;48.858;10.128;2023-04-06T09:54:50;6.00;90.90
6377;DHT22;3221;48.858;10.128;2023-04-06T09:57:29;6.20;94.20
6377;DHT22;3221;48.858;10.128;2023-04-06T10:00:08;6.10;92.00
6377;DHT22;3221;48.858;10.128;2023-04-06T10:03:07;6.20;94.00
6377;DHT22;3221;48.858;10.128;2023-04-06T10:05:52;6.40;94.60
6377;DHT22;3221;48.858;10.128;2023-04-06T10:08:22;6.30;94.10
6377;DHT22;3221;48.858;10.128;2023-04-06T10:10:51;6.30;93.30
6377;DHT22;3221;48.858;10.128;2023-04-06T10:13:19;6.30;90.30
6377;DHT22;3221;48.858;10.128;2023-04-06T10:15:46;6.30;92.30
6377;DHT22;3221;48.858;10.128;2023-04-06T10:18:14;6.40;94.20
6377;DHT22;3221;48.858;10.128;2023-04-06T10:20:51;6.50;93.40
6377;DHT22;3221;48.858;10.128;2023-04-06T10:23:26;6.70;93.20
6377;DHT22;3221;48.858;10.128;2023-04-06T10:25:57;6.90;93.10
6377;DHT22;3221;48.858;10.128;2023-04-06T10:28:25;6.80;93.20
6377;DHT22;3221;48.858;10.128;2023-04-06T10:31:00;6.70;90.90
6377;DHT22;3221;48.858;10.128;2023-04-06T10:33:28;6.70;89.70
6377;DHT22;3221;48.858;10.128;2023-04-06T10:35:55;6.80;90.20
6377;DHT22;3221;48.858;10.128;2023-04-06T10:38:37;6.80;90.90
6377;DHT22;3221;48.858;10.128;2023-04-06T10:41:09;6.90;90.70
6377;DHT22;3221;48.858;10.128;2023-04-06T10:43:38;7.00;91.50
6377;DHT22;3221;48.858;10.128;2023-04-06T10:46:07;7.10;93.70
6377;DHT22;3221;48.858;10.128;2023-04-06T10:48:41;6.90;90.00
6377;DHT22;3221;48.858;10.128;2023-04-06T10:51:16;6.90;90.90
6377;DHT22;3221;48.858;10.128;2023-04-06T10:53:47;6.90;91.80
6377;DHT22;3221;48.858;10.128;2023-04-06T10:56:17;6.90;91.20
6377;DHT22;3221;48.858;10.128;2023-04-06T10:58:45;6.90;92.30
6377;DHT22;3221;48.858;10.128;2023-04-06T11:01:18;7.20;93.60
6377;DHT22;3221;48.858;10.128;2023-04-06T11:03:46;7.20;92.90
6377;DHT22;3221;48.858;10.128;2023-04-06T11:06:24;7.20;92.60
6377;DHT22;3221;48.858;10.128;2023-04-06T11:08:52;7.30;91.40
6377;DHT22;3221;48.858;10.128;2023-04-06T11:11:21;7.40;91.10
6377;DHT22;3221;48.858;10.128;2023-04-06T11:19:03;7.40;92.10
6377;DHT22;3221;48.858;10.128;2023-04-06T11:21:37;7.40;91.00
6377;DHT22;3221;48.858;10.128;2023-04-06T11:24:11;7.60;91.40
6377;DHT22;3221;48.858;10.128;2023-04-06T11:26:47;7.70;91.70
6377;DHT22;3221;48.858;10.128;2023-04-06T11:29:17;7.80;91.40
6377;DHT22;3221;48.858;10.128;2023-04-06T11:31:47;7.90;91.90
6377;DHT22;3221;48.858;10.128;2023-04-06T11:34:19;7.90;90.60
6377;DHT22;3221;48.858;10.128;2023-04-06T11:36:48;7.90;91.20
6377;DHT22;3221;48.858;10.128;2023-04-06T11:39:23;8.00;90.90
6377;DHT22;3221;48.858;10.128;2023-04-06T11:41:52;8.20;91.60
6377;DHT22;3221;48.858;10.128;2023-04-06T11:44:33;8.30;88.30
6377;DHT22;3221;48.858;10.128;2023-04-06T11:47:02;8.20;85.00
6377;DHT22;3221;48.858;10.128;2023-04-06T11:49:30;8.10;90.20
6377;DHT22;3221;48.858;10.128;2023-04-06T11:51:59;8.10;91.00
6377;DHT22;3221;48.858;10.128;2023-04-06T11:54:36;8.30;90.50
6377;DHT22;3221;48.858;10.128;2023-04-06T11:57:05;8.30;91.60
6377;DHT22;3221;48.858;10.128;2023-04-06T11:59:32;8.30;90.50
6377;DHT22;3221;48.858;10.128;2023-04-06T12:02:01;8.30;88.60
6377;DHT22;3221;48.858;10.128;2023-04-06T12:04:28;8.20;90.00
6377;DHT22;3221;48.858;10.128;2023-04-06T12:06:56;8.10;89.30
6377;DHT22;3221;48.858;10.128;2023-04-06T12:09:23;8.20;90.70
6377;DHT22;3221;48.858;10.128;2023-04-06T12:11:50;8.30;89.20
6377;DHT22;3221;48.858;10.128;2023-04-06T12:14:17;8.20;90.50
6377;DHT22;3221;48.858;10.128;2023-04-06T12:16:44;8.20;87.20
6377;DHT22;3221;48.858;10.128;2023-04-06T12:19:11;8.30;88.70
6377;DHT22;3221;48.858;10.128;2023-04-06T12:21:38;8.40;85.80
6377;DHT22;3221;48.858;10.128;2023-04-06T12:24:05;8.30;87.60
6377;DHT22;3221;48.858;10.128;2023-04-06T12:26:32;8.40;90.50
6377;DHT22;3221;48.858;10.128;2023-04-06T12:29:00;8.50;88.40
6377;DHT22;3221;48.858;10.128;2023-04-06T12:31:37;8.40;88.30
6377;DHT22;3221;48.858;10.128;2023-04-06T12:34:07;8.60;90.60
6377;DHT22;3221;48.858;10.128;2023-04-06T12:36:34;8.80;90.70
6377;DHT22;3221;48.858;10.128;2023-04-06T12:39:03;8.60;86.70
6377;DHT22;3221;48.858;10.128;2023-04-06T12:41:30;8.70;86.60
6377;DHT22;3221;48.858;10.128;2023-04-06T12:43:58;8.70;90.00
6377;DHT22;3221;48.858;10.128;2023-04-06T12:46:26;8.80;87.60
6377;DHT22;3221;48.858;10.128;2023-04-06T12:48:53;8.80;89.40
6377;DHT22;3221;48.858;10.128;2023-04-06T12:51:22;8.90;88.60
6377;DHT22;3221;48.858;10.128;2023-04-06T12:53:49;8.90;88.60
6377;DHT22;3221;48.858;10.128;2023-04-06T12:56:17;9.00;90.50
6377;DHT22;3221;48.858;10.128;2023-04-06T12:58:45;9.10;86.20
6377;DHT22;3221;48.858;10.128;2023-04-06T13:01:12;9.20;86.50
6377;DHT22;3221;48.858;10.128;2023-04-06T13:03:42;9.30;84.90
6377;DHT22;3221;48.858;10.128;2023-04-06T13:06:10;9.40;88.10
6377;DHT22;3221;48.858;10.128;2023-04-06T13:08:38;9.50;90.20
6377;DHT22;3221;48.858;10.128;2023-04-06T13:11:05;9.50;90.20
6377;DHT22;3221;48.858;10.128;2023-04-06T13:13:36;9.60;87.20
6377;DHT22;3221;48.858;10.128;2023-04-06T13:16:08;9.70;88.60
6377;DHT22;3221;48.858;10.128;2023-04-06T13:18:36;9.80;88.10
6377;DHT22;3221;48.858;10.128;2023-04-06T13:21:06;9.90;90.20
6377;DHT22;3221;48.858;10.128;2023-04-06T13:23:34;9.80;89.80
6377;DHT22;3221;48.858;10.128;2023-04-06T13:26:04;9.80;87.60
6377;DHT22;3221;48.858;10.128;2023-04-06T13:28:32;10.00;85.90
6377;DHT22;3221;48.858;10.128;2023-04-06T13:31:01;10.10;83.80
6377;DHT22;3221;48.858;10.128;2023-04-06T13:33:29;10.10;86.20
6377;DHT22;3221;48.858;10.128;2023-04-06T13:35:57;10.20;86.70
6377;DHT22;3221;48.858;10.128;2023-04-06T13:38:24;10.20;87.70
6377;DHT22;3221;48.858;10.128;2023-04-06T13:40:51;10.20;86.30
6377;DHT22;3221;48.858;10.128;2023-04-06T13:43:18;10.10;89.40
6377;DHT22;3221;48.858;10.128;2023-04-06T13:45:50;10.00;86.20
6377;DHT22;3221;48.858;10.128;2023-04-06T13:48:17;10.00;87.40
6377;DHT22;3221;48.858;10.128;2023-04-06T13:50:45;10.10;87.30
6377;DHT22;3221;48.858;10.128;2023-04-06T13:53:14;10.20;88.00
6377;DHT22;3221;48.858;10.128;2023-04-06T13:55:42;10.20;86.80
6377;DHT22;3221;48.858;10.128;2023-04-06T13:58:09;10.30;85.00
6377;DHT22;3221;48.858;10.128;2023-04-06T14:00:35;10.40;86.80
6377;DHT22;3221;48.858;10.128;2023-04-06T14:03:03;10.30;83.80
6377;DHT22;3221;48.858;10.128;2023-04-06T14:05:31;10.50;84.60
6377;DHT22;3221;48.858;10.128;2023-04-06T14:07:58;10.40;84.70
6377;DHT22;3221;48.858;10.128;2023-04-06T14:10:25;10.60;83.10
6377;DHT22;3221;48.858;10.128;2023-04-06T14:12:54;10.70;83.70
6377;DHT22;3221;48.858;10.128;2023-04-06T14:15:22;10.60;84.10
6377;DHT22;3221;48.858;10.128;2023-04-06T14:17:50;10.60;85.50
6377;DHT22;3221;48.858;10.128;2023-04-06T14:20:18;10.50;84.70
6377;DHT22;3221;48.858;10.128;2023-04-06T14:22:45;10.50;84.90
6377;DHT22;3221;48.858;10.128;2023-04-06T14:25:13;10.50;82.90
6377;DHT22;3221;48.858;10.128;2023-04-06T14:27:39;10.80;82.10
6377;DHT22;3221;48.858;10.128;2023-04-06T14:30:07;10.90;80.10
6377;DHT22;3221;48.858;10.128;2023-04-06T14:32:34;11.00;81.80
6377;DHT22;3221;48.858;10.128;2023-04-06T14:35:04;10.90;80.80
6377;DHT22;3221;48.858;10.128;2023-04-06T14:37:34;10.80;82.70
6377;DHT22;3221;48.858;10.128;2023-04-06T14:40:02;10.90;81.70
6377;DHT22;3221;48.858;10.128;2023-04-06T14:42:29;11.00;83.70
6377;DHT22;3221;48.858;10.128;2023-04-06T14:44:56;11.00;83.30
6377;DHT22;3221;48.858;10.128;2023-04-06T14:47:23;11.10;81.40
6377;DHT22;3221;48.858;10.128;2023-04-06T14:49:51;10.70;83.30
6377;DHT22;3221;48.858;10.128;2023-04-06T14:52:18;10.90;77.60
6377;DHT22;3221;48.858;10.128;2023-04-06T14:54:45;10.90;82.50
6377;DHT22;3221;48.858;10.128;2023-04-06T14:57:12;11.10;74.70
6377;DHT22;3221;48.858;10.128;2023-04-06T14:59:39;11.30;77.60
6377;DHT22;3221;48.858;10.128;2023-04-06T15:02:06;11.20;78.40
6377;DHT22;3221;48.858;10.128;2023-04-06T15:04:36;11.10;76.70
6377;DHT22;3221;48.858;10.128;2023-04-06T15:07:03;11.20;79.60
6377;DHT22;3221;48.858;10.128;2023-04-06T15:09:30;11.00;81.70
6377;DHT22;3221;48.858;10.128;2023-04-06T15:11:57;11.10;81.60
6377;DHT22;3221;48.858;10.128;2023-04-06T15:14:24;11.10;76.70
6377;DHT22;3221;48.858;10.128;2023-04-06T15:16:51;11.10;76.90
6377;DHT22;3221;48.858;10.128;2023-04-06T15:19:19;11.10;79.50
6377;DHT22;3221;48.858;10.128;2023-04-06T15:21:45;11.00;79.30
6377;DHT22;3221;48.858;10.128;2023-04-06T15:24:12;11.10;78.50
6377;DHT22;3221;48.858;10.128;2023-04-06T15:26:39;11.00;74.10
6377;DHT22;3221;48.858;10.128;2023-04-06T15:29:06;10.80;78.30
6377;DHT22;3221;48.858;10.128;2023-04-06T15:31:33;11.00;77.50
6377;DHT22;3221;48.858;10.128;2023-04-06T15:34:04;10.90;73.00
6377;DHT22;3221;48.858;10.128;2023-04-06T15:36:32;10.90;77.30
6377;DHT22;3221;48.858;10.128;2023-04-06T15:39:00;11.00;77.80
6377;DHT22;3221;48.858;10.128;2023-04-06T15:41:27;11.00;79.60
6377;DHT22;3221;48.858;10.128;2023-04-06T15:43:54;10.90;77.00
6377;DHT22;3221;48.858;10.128;2023-04-06T15:46:22;10.80;73.20
6377;DHT22;3221;48.858;10.128;2023-04-06T15:48:49;10.60;74.30
6377;DHT22;3221;48.858;10.128;2023-04-06T15:51:16;10.70;75.00
6377;DHT22;3221;48.858;10.128;2023-04-06T15:53:44;10.70;75.90
6377;DHT22;3221;48.858;10.128;2023-04-06T15:56:11;10.40;73.90
6377;DHT22;3221;48.858;10.128;2023-04-06T15:58:40;10.40;73.40
6377;DHT22;3221;48.858;10.128;2023-04-06T16:01:11;10.20;72.10
6377;DHT22;3221;48.858;10.128;2023-04-06T16:03:39;10.10;76.10
6377;DHT22;3221;48.858;10.128;2023-04-06T16:06:06;9.90;74.40
6377;DHT22;3221;48.858;10.128;2023-04-06T16:08:35;9.90;76.40
6377;DHT22;3221;48.858;10.128;2023-04-06T16:11:02;9.90;80.50
6377;DHT22;3221;48.858;10.128;2023-04-06T16:13:29;9.80;72.50
6377;DHT22;3221;48.858;10.128;2023-04-06T16:15:56;9.90;78.40
6377;DHT22;3221;48.858;10.128;2023-04-06T16:18:23;9.80;75.90